Time;durP1;ratioP1;P1;durP2;ratioP2;P2;SDS_P1;SDS_P2;PMS_P1;PMS_P2;Temp;Humidity;BMP_temperature;BMP_pressure;BME280_temperature;BME280_humidity;BME280_pressure;Samples;Min_cycle;Max_cycle;Signal;HPM_P1;HPM_P2
2022/09/02 00:00:23;;;;;;;;;;;;;;;27.73;44.14;96626.22;5076374;28;19912;-36
2022/09/02 00:02:49;;;;;;;;;;;;;;;27.67;44.53;96626.34;5076199;28;19958;-36
2022/09/02 00:05:15;;;;;;;;;;;;;;;27.79;44.21;96626.88;5091989;28;19908;-36
2022/09/02 00:07:40;;;;;;;;;;;;;;;27.80;43.96;96629.13;5095862;28;19916;-35
2022/09/02 00:10:06;;;;;;;;;;;;;;;27.76;44.12;96630.72;5096418;28;19916;-35
2022/09/02 00:12:31;;;;;;;;;;;;;;;27.77;44.18;96627.41;5096337;28;19955;-36
2022/09/02 00:14:57;;;;;;;;;;;;;;;27.72;44.42;96621.91;5078199;28;19953;-36
2022/09/02 00:17:22;;;;;;;;;;;;;;;27.74;44.01;96624.94;5096322;28;19998;-36
2022/09/02 00:19:47;;;;;;;;;;;;;;;27.67;44.27;96631.91;5096129;28;19990;-37
2022/09/02 00:22:12;;;;;;;;;;;;;;;27.73;44.20;96623.44;5096407;28;19908;-35
2022/09/02 00:24:38;;;;;;;;;;;;;;;27.61;44.50;96625.69;5096269;28;20292;-36
2022/09/02 00:27:04;;;;;;;;;;;;;;;27.70;44.16;96630.06;5096001;28;19908;-35
2022/09/02 00:29:29;;;;;;;;;;;;;;;27.67;44.24;96625.59;5096185;28;19915;-35
2022/09/02 00:31:55;;;;;;;;;;;;;;;27.69;44.10;96623.00;5096273;28;19969;-36
2022/09/02 00:34:20;;;;;;;;;;;;;;;27.63;44.25;96623.13;5095818;28;19916;-35
2022/09/02 00:36:46;;;;;;;;;;;;;;;27.67;44.11;96620.75;5096451;28;19908;-35
2022/09/02 00:39:11;;;;;;;;;;;;;;;27.62;44.39;96629.22;5095761;28;20281;-36
2022/09/02 00:41:38;;;;;;;;;;;;;;;27.63;44.48;96636.28;5095873;28;19950;-36
2022/09/02 00:44:06;;;;;;;;;;;;;;;27.61;44.39;96631.25;5095390;28;20362;-37
2022/09/02 00:46:32;;;;;;;;;;;;;;;27.66;44.00;96635.22;5095746;28;19912;-35
2022/09/02 00:49:02;;;;;;;;;;;;;;;27.68;44.15;96635.44;5095541;28;20006;-35
2022/09/02 00:51:31;;;;;;;;;;;;;;;27.60;44.14;96638.09;5095460;28;19947;-36
2022/09/02 00:53:56;;;;;;;;;;;;;;;27.65;44.13;96636.50;5095854;28;19912;-36
2022/09/02 00:56:24;;;;;;;;;;;;;;;27.59;44.08;96649.78;5095620;28;19961;-35
2022/09/02 00:58:50;;;;;;;;;;;;;;;27.60;44.07;96642.94;5095371;28;19912;-37
2022/09/02 01:01:16;;;;;;;;;;;;;;;27.58;44.39;96651.06;5095588;28;19938;-35
2022/09/02 01:03:42;;;;;;;;;;;;;;;27.52;44.20;96646.34;5077470;28;20388;-36
2022/09/02 01:06:10;;;;;;;;;;;;;;;27.61;43.98;96647.22;5095304;28;19931;-35
2022/09/02 01:08:37;;;;;;;;;;;;;;;27.57;43.85;96647.53;5095191;28;19915;-36
2022/09/02 01:11:05;;;;;;;;;;;;;;;27.62;43.75;96643.91;5095155;28;19915;-36
2022/09/02 01:13:34;;;;;;;;;;;;;;;27.56;43.94;96643.28;5095066;28;20006;-36
2022/09/02 01:16:12;;;;;;;;;;;;;;;27.57;44.00;96644.03;5095050;28;20337;-35
2022/09/02 01:18:37;;;;;;;;;;;;;;;27.59;43.93;96638.63;5094831;28;20457;-36
2022/09/02 01:21:03;;;;;;;;;;;;;;;27.61;43.79;96647.22;5094446;28;19951;-35
2022/09/02 01:23:30;;;;;;;;;;;;;;;27.58;43.70;96651.06;5095119;28;19965;-35
2022/09/02 01:25:55;;;;;;;;;;;;;;;27.54;43.59;96649.34;5094815;28;19908;-36
2022/09/02 01:28:20;;;;;;;;;;;;;;;27.56;43.75;96653.66;5094985;28;20277;-35
2022/09/02 01:30:49;;;;;;;;;;;;;;;27.50;43.72;96648.16;5094920;28;19994;-35
2022/09/02 01:33:15;;;;;;;;;;;;;;;27.45;43.68;96651.78;5094712;28;19961;-35
2022/09/02 01:35:41;;;;;;;;;;;;;;;27.46;43.82;96651.25;5095221;28;19991;-36
2022/09/02 01:38:06;;;;;;;;;;;;;;;27.46;43.41;96659.59;5094752;28;20350;-35
2022/09/02 01:40:32;;;;;;;;;;;;;;;27.45;43.45;96657.34;5094545;28;19990;-35
2022/09/02 01:43:06;;;;;;;;;;;;;;;27.40;43.56;96647.81;5094364;28;20309;-36
2022/09/02 01:45:32;;;;;;;;;;;;;;;27.44;43.07;96653.84;5094846;28;19912;-35
2022/09/02 01:47:57;;;;;;;;;;;;;;;27.43;43.65;96652.34;5094460;28;19995;-36
2022/09/02 01:50:23;;;;;;;;;;;;;;;27.40;43.10;96650.63;5094466;28;19908;-36
2022/09/02 01:52:48;;;;;;;;;;;;;;;27.40;43.47;96653.41;5094308;28;19912;-35
2022/09/02 01:55:14;;;;;;;;;;;;;;;27.43;42.85;96662.72;5076215;28;19908;-37
2022/09/02 01:57:39;;;;;;;;;;;;;;;27.42;43.30;96661.97;5094225;28;19908;-35
2022/09/02 02:00:08;;;;;;;;;;;;;;;27.44;42.48;96667.75;5094490;28;19930;-36
2022/09/02 02:02:33;;;;;;;;;;;;;;;27.42;42.94;96666.78;5093947;28;19946;-36
2022/09/02 02:04:59;;;;;;;;;;;;;;;27.42;42.59;96661.22;5094209;28;19939;-37
2022/09/02 02:07:24;;;;;;;;;;;;;;;27.45;42.56;96660.13;5094379;28;19943;-35
2022/09/02 02:09:50;;;;;;;;;;;;;;;27.39;42.57;96656.72;5094166;28;19912;-35
2022/09/02 02:12:15;;;;;;;;;;;;;;;27.42;42.73;96661.22;5094297;28;19911;-35
2022/09/02 02:14:41;;;;;;;;;;;;;;;27.38;42.59;96664.31;5094149;28;19908;-36
2022/09/02 02:17:06;;;;;;;;;;;;;;;27.39;42.70;96665.06;5093926;28;19916;-35
2022/09/02 02:19:32;;;;;;;;;;;;;;;27.37;42.39;96660.03;5094342;28;19907;-35
2022/09/02 02:21:58;;;;;;;;;;;;;;;27.39;42.15;96653.94;5094024;28;19915;-35
2022/09/02 02:24:23;;;;;;;;;;;;;;;27.38;42.06;96652.41;5094054;28;19914;-35
2022/09/02 02:26:48;;;;;;;;;;;;;;;27.35;42.41;96657.03;5093955;28;19919;-35
2022/09/02 02:29:14;;;;;;;;;;;;;;;27.33;42.34;96654.00;5093911;28;19908;-36
2022/09/02 02:31:40;;;;;;;;;;;;;;;27.33;42.02;96645.66;5094345;28;19954;-35
2022/09/02 02:34:05;;;;;;;;;;;;;;;27.32;42.15;96655.31;5093813;28;19923;-35
2022/09/02 02:36:30;;;;;;;;;;;;;;;27.33;42.23;96636.56;5094019;28;19912;-35
2022/09/02 02:38:56;;;;;;;;;;;;;;;27.30;42.28;96635.59;5094049;28;19912;-35
2022/09/02 02:41:21;;;;;;;;;;;;;;;27.31;42.29;96628.75;5093780;28;19969;-35
2022/09/02 02:43:46;;;;;;;;;;;;;;;27.38;41.90;96633.69;5093516;28;19916;-36
2022/09/02 02:46:12;;;;;;;;;;;;;;;27.35;41.82;96623.59;5094042;28;19908;-36
2022/09/02 02:48:38;;;;;;;;;;;;;;;27.32;42.17;96621.91;5093763;28;19908;-35
2022/09/02 02:51:04;;;;;;;;;;;;;;;27.31;41.84;96616.88;5093661;28;19908;-35
2022/09/02 02:53:30;;;;;;;;;;;;;;;27.36;41.71;96608.41;5093760;28;19970;-37
2022/09/02 02:55:56;;;;;;;;;;;;;;;27.27;41.64;96614.41;5093553;28;19915;-35
2022/09/02 02:58:21;;;;;;;;;;;;;;;27.31;41.89;96628.00;5093687;28;20322;-35
2022/09/02 03:00:47;;;;;;;;;;;;;;;27.30;41.47;96624.47;5093863;28;19908;-36
2022/09/02 03:03:12;;;;;;;;;;;;;;;27.32;41.64;96616.34;5093307;28;19912;-35
2022/09/02 03:05:38;;;;;;;;;;;;;;;27.36;41.34;96613.97;5093531;28;19908;-35
2022/09/02 03:08:05;;;;;;;;;;;;;;;27.28;41.77;96610.31;5093552;28;19947;-36
2022/09/02 03:10:31;;;;;;;;;;;;;;;27.25;41.86;96608.59;5093541;28;20285;-35
2022/09/02 03:13:00;;;;;;;;;;;;;;;27.22;41.86;96609.66;5093657;28;20358;-35
2022/09/02 03:15:26;;;;;;;;;;;;;;;27.26;42.16;96607.31;5093474;28;19915;-36
2022/09/02 03:17:52;;;;;;;;;;;;;;;27.27;41.23;96608.06;5093603;28;19908;-37
2022/09/02 03:20:17;;;;;;;;;;;;;;;27.26;41.34;96598.97;5093399;28;19908;-35
2022/09/02 03:22:43;;;;;;;;;;;;;;;27.17;42.35;96602.19;5093229;28;20259;-35
2022/09/02 03:25:10;;;;;;;;;;;;;;;27.27;41.45;96597.69;5075250;28;20293;-35
2022/09/02 03:27:38;;;;;;;;;;;;;;;27.27;41.69;96588.59;5093564;28;19908;-35
2022/09/02 03:30:06;;;;;;;;;;;;;;;27.27;41.39;96578.19;5093315;28;20061;-35
2022/09/02 03:32:31;;;;;;;;;;;;;;;27.26;41.57;96576.69;5093194;28;20353;-36
2022/09/02 03:34:56;;;;;;;;;;;;;;;27.26;41.37;96571.13;5075688;28;19916;-35
2022/09/02 03:37:22;;;;;;;;;;;;;;;27.28;41.56;96585.25;5093557;28;19908;-35
2022/09/02 03:39:47;;;;;;;;;;;;;;;27.24;41.58;96578.50;5093133;28;19908;-36
2022/09/02 03:42:12;;;;;;;;;;;;;;;27.25;41.32;96580.75;5093286;28;19915;-35
2022/09/02 03:44:40;;;;;;;;;;;;;;;27.29;41.28;96569.31;5096681;28;20332;-35
2022/09/02 03:47:06;;;;;;;;;;;;;;;27.28;41.18;96576.91;5096983;28;19908;-35
2022/09/02 03:49:31;;;;;;;;;;;;;;;27.29;40.86;96597.91;5096876;28;19907;-35
2022/09/02 03:51:57;;;;;;;;;;;;;;;27.22;41.47;96590.16;5096898;28;19977;-35
2022/09/02 03:54:22;;;;;;;;;;;;;;;27.20;40.98;96587.16;5096888;28;19915;-36
2022/09/02 03:56:47;;;;;;;;;;;;;;;27.20;41.17;96584.38;5096612;28;20357;-35
2022/09/02 03:59:13;;;;;;;;;;;;;;;27.22;41.48;96581.06;5096730;28;19991;-36
2022/09/02 04:01:38;;;;;;;;;;;;;;;27.22;41.57;96581.06;5096555;28;19908;-35
2022/09/02 04:04:04;;;;;;;;;;;;;;;27.28;41.19;96576.16;5096609;28;19912;-35
2022/09/02 04:06:30;;;;;;;;;;;;;;;27.24;41.43;96593.19;5096357;28;20003;-35
2022/09/02 04:08:55;;;;;;;;;;;;;;;27.21;41.21;96583.09;5096416;28;19959;-35
2022/09/02 04:11:22;;;;;;;;;;;;;;;27.22;41.14;96592.22;5096539;28;20034;-35
2022/09/02 04:13:48;;;;;;;;;;;;;;;27.22;40.91;96592.97;5096214;28;20480;-35
2022/09/02 04:16:15;;;;;;;;;;;;;;;27.16;40.74;96581.19;5096223;28;19908;-35
2022/09/02 04:18:41;;;;;;;;;;;;;;;27.23;41.06;96588.88;5096048;28;19912;-36
2022/09/02 04:21:07;;;;;;;;;;;;;;;27.20;40.90;96583.66;5096181;28;19908;-35
2022/09/02 04:23:32;;;;;;;;;;;;;;;27.20;41.54;96587.16;5096646;28;20277;-35
2022/09/02 04:25:58;;;;;;;;;;;;;;;27.21;40.83;96585.88;5096178;28;19999;-36
2022/09/02 04:28:23;;;;;;;;;;;;;;;27.17;41.13;96580.66;5095994;28;19908;-35
2022/09/02 04:30:49;;;;;;;;;;;;;;;27.15;40.81;96580.44;5095987;28;19911;-36
2022/09/02 04:33:14;;;;;;;;;;;;;;;27.11;41.17;96576.47;5077866;28;19915;-35
2022/09/02 04:35:40;;;;;;;;;;;;;;;27.12;40.97;96575.94;5095860;28;19915;-36
2022/09/02 04:38:06;;;;;;;;;;;;;;;27.10;41.36;96574.97;5077674;28;20327;-35
2022/09/02 04:40:31;;;;;;;;;;;;;;;27.11;41.41;96568.84;5096163;28;19912;-35
2022/09/02 04:42:56;;;;;;;;;;;;;;;27.06;41.35;96564.16;5095749;28;20390;-35
2022/09/02 04:45:23;;;;;;;;;;;;;;;27.11;41.33;96573.66;5095622;28;19920;-35
2022/09/02 04:47:48;;;;;;;;;;;;;;;27.13;41.20;96566.28;5095933;28;20010;-35
2022/09/02 04:50:14;;;;;;;;;;;;;;;27.07;41.52;96578.81;5095765;28;19946;-35
2022/09/02 04:52:39;;;;;;;;;;;;;;;27.10;41.03;96594.44;5095714;28;19908;-36
2022/09/02 04:55:05;;;;;;;;;;;;;;;27.10;41.07;96592.41;5095498;28;20015;-35
2022/09/02 04:57:31;;;;;;;;;;;;;;;27.09;41.23;96587.38;5095955;28;19978;-35
2022/09/02 04:59:56;;;;;;;;;;;;;;;27.13;40.58;96583.00;5077674;28;20362;-35
2022/09/02 05:02:22;;;;;;;;;;;;;;;27.11;41.00;96598.72;5095276;28;19929;-36
2022/09/02 05:04:48;;;;;;;;;;;;;;;27.14;40.53;96594.88;5077100;28;19916;-35
2022/09/02 05:07:14;;;;;;;;;;;;;;;27.13;41.16;96598.94;5095176;28;19939;-35
2022/09/02 05:09:40;;;;;;;;;;;;;;;27.12;40.68;96603.75;5095423;28;19908;-36
2022/09/02 05:12:06;;;;;;;;;;;;;;;27.11;41.17;96604.28;5095004;28;19915;-35
2022/09/02 05:14:31;;;;;;;;;;;;;;;27.15;41.07;96607.53;5095441;28;19912;-35
2022/09/02 05:16:59;;;;;;;;;;;;;;;27.18;41.14;96609.25;5095017;28;19922;-35
2022/09/02 05:19:24;;;;;;;;;;;;;;;27.17;40.56;96616.09;5095088;28;19915;-35
2022/09/02 05:21:52;;;;;;;;;;;;;;;27.20;40.67;96628.94;5095015;28;19908;-35
2022/09/02 05:24:17;;;;;;;;;;;;;;;27.17;41.36;96627.22;5094839;28;20261;-35
2022/09/02 05:26:43;;;;;;;;;;;;;;;27.15;41.18;96632.56;5094929;28;19908;-35
2022/09/02 05:29:10;;;;;;;;;;;;;;;27.17;40.65;96630.03;5094805;28;19999;-35
2022/09/02 05:31:36;;;;;;;;;;;;;;;27.16;40.43;96640.41;5094798;28;20358;-35
2022/09/02 05:34:01;;;;;;;;;;;;;;;27.15;41.15;96640.94;5094617;28;20006;-35
2022/09/02 05:36:27;;;;;;;;;;;;;;;27.10;41.10;96644.56;5095147;28;19999;-35
2022/09/02 05:38:52;;;;;;;;;;;;;;;27.03;40.78;96659.09;5095153;28;19957;-35
2022/09/02 05:41:22;;;;;;;;;;;;;;;27.09;41.49;96648.63;5092239;28;19912;-35
2022/09/02 05:43:48;;;;;;;;;;;;;;;27.09;40.96;96656.97;5092868;28;19919;-35
2022/09/02 05:46:16;;;;;;;;;;;;;;;27.03;40.92;96659.84;5093144;28;19919;-35
2022/09/02 05:51:26;;;;;;;;;;;;;;;27.08;41.12;96658.25;5093314;28;19919;-36
2022/09/02 05:53:52;;;;;;;;;;;;;;;27.10;40.60;96661.25;5092463;28;19908;-35
2022/09/02 05:56:17;;;;;;;;;;;;;;;27.02;41.18;96663.91;5092978;28;19908;-35
2022/09/02 05:58:42;;;;;;;;;;;;;;;27.05;40.98;96667.69;5092697;28;19934;-35
2022/09/02 06:01:09;;;;;;;;;;;;;;;27.05;41.17;96664.91;5092982;28;20425;-35
2022/09/02 06:03:35;;;;;;;;;;;;;;;27.03;41.13;96673.78;5092644;28;20282;-35
2022/09/02 06:06:00;;;;;;;;;;;;;;;27.02;41.14;96674.31;5092038;28;19916;-36
2022/09/02 06:08:26;;;;;;;;;;;;;;;27.05;41.67;96678.81;5092771;28;19914;-35
2022/09/02 06:10:51;;;;;;;;;;;;;;;27.01;41.69;96695.81;5092750;28;19915;-35
2022/09/02 06:13:21;;;;;;;;;;;;;;;27.05;40.65;96703.88;5092503;28;20014;-35
2022/09/02 06:15:46;;;;;;;;;;;;;;;27.05;41.09;96701.09;5092293;28;19912;-36
2022/09/02 06:18:12;;;;;;;;;;;;;;;27.05;40.95;96698.31;5092665;28;19945;-35
2022/09/02 06:20:41;;;;;;;;;;;;;;;27.01;41.42;96700.63;5092338;28;20045;-35
2022/09/02 06:23:06;;;;;;;;;;;;;;;27.05;41.46;96689.94;5092227;28;20389;-36
2022/09/02 06:25:34;;;;;;;;;;;;;;;27.06;41.37;96705.38;5092561;28;19912;-35
2022/09/02 06:27:59;;;;;;;;;;;;;;;27.03;41.67;96709.22;5092247;28;19912;-35
2022/09/02 06:30:25;;;;;;;;;;;;;;;27.03;40.75;96700.84;5092350;28;19915;-36
2022/09/02 06:32:50;;;;;;;;;;;;;;;27.01;41.08;96695.06;5092074;28;19940;-35
2022/09/02 06:35:15;;;;;;;;;;;;;;;27.02;41.17;96699.34;5092409;28;19908;-35
2022/09/02 06:37:41;;;;;;;;;;;;;;;27.02;40.92;96691.00;5092141;28;19908;-35
2022/09/02 06:40:06;;;;;;;;;;;;;;;27.04;41.23;96685.66;5091959;28;19915;-36
2022/09/02 06:42:32;;;;;;;;;;;;;;;26.97;41.58;96695.38;5091948;28;19912;-36
2022/09/02 06:44:57;;;;;;;;;;;;;;;26.97;41.05;96694.63;5092111;28;19951;-35
2022/09/02 06:47:23;;;;;;;;;;;;;;;27.03;41.01;96692.50;5090557;28;19912;-35
2022/09/02 06:49:48;;;;;;;;;;;;;;;27.03;40.67;96684.16;5092180;28;20358;-35
2022/09/02 06:52:13;;;;;;;;;;;;;;;27.01;41.41;96686.72;5091938;28;19912;-35
2022/09/02 06:54:39;;;;;;;;;;;;;;;26.97;41.30;96684.22;5092373;28;20357;-35
2022/09/02 06:57:04;;;;;;;;;;;;;;;26.96;41.33;96684.75;5092110;28;19953;-35
2022/09/02 06:59:29;;;;;;;;;;;;;;;27.05;41.28;96670.47;5084927;28;19916;-35
2022/09/02 07:01:55;;;;;;;;;;;;;;;26.96;41.23;96679.19;5087959;28;20002;-36
2022/09/02 07:07:07;;;;;;;;;;;;;;;27.02;41.04;96686.19;5092111;28;19974;-35
2022/09/02 07:09:32;;;;;;;;;;;;;;;26.97;41.03;96684.22;5091797;28;19912;-36
2022/09/02 07:11:58;;;;;;;;;;;;;;;27.00;41.04;96682.44;5091754;28;19995;-35
2022/09/02 07:14:26;;;;;;;;;;;;;;;27.00;41.32;96679.66;5092150;28;19999;-35
2022/09/02 07:16:52;;;;;;;;;;;;;;;26.99;41.25;96680.91;5091871;28;19908;-35
2022/09/02 07:19:19;;;;;;;;;;;;;;;26.95;41.78;96686.06;5095460;28;19936;-35
2022/09/02 07:21:44;;;;;;;;;;;;;;;26.97;41.27;96700.19;5095794;28;20404;-35
2022/09/02 07:24:11;;;;;;;;;;;;;;;26.96;41.52;96693.09;5095683;28;19918;-36
2022/09/02 07:26:36;;;;;;;;;;;;;;;27.00;41.18;96699.13;5093799;28;19956;-36
2022/09/02 07:29:02;;;;;;;;;;;;;;;26.94;41.61;96698.47;5078564;28;20010;-35
2022/09/02 07:31:29;;;;;;;;;;;;;;;26.98;41.28;96698.91;5094740;28;20430;-35
2022/09/02 07:33:57;;;;;;;;;;;;;;;27.03;41.22;96698.81;5059368;28;20377;-35
2022/09/02 07:36:24;;;;;;;;;;;;;;;26.99;41.25;96700.41;5074823;28;20015;-35
2022/09/02 07:38:49;;;;;;;;;;;;;;;27.05;41.23;96695.53;5075165;28;19938;-35
2022/09/02 07:41:14;;;;;;;;;;;;;;;27.00;41.16;96699.13;5075041;28;20354;-35
2022/09/02 07:43:41;;;;;;;;;;;;;;;26.98;41.64;96690.56;5074741;28;19924;-35
2022/09/02 07:46:06;;;;;;;;;;;;;;;26.90;41.44;96692.44;5057252;28;20359;-37
2022/09/02 07:48:32;;;;;;;;;;;;;;;26.99;41.77;96694.84;5055286;28;19997;-35
2022/09/02 07:50:58;;;;;;;;;;;;;;;27.01;41.69;96695.81;5075111;28;19914;-36
2022/09/02 07:53:23;;;;;;;;;;;;;;;26.98;41.40;96696.88;5074647;28;19912;-35
2022/09/02 07:55:49;;;;;;;;;;;;;;;27.02;41.67;96697.31;5074682;28;20362;-35
2022/09/02 07:58:15;;;;;;;;;;;;;;;27.00;41.43;96693.56;5096649;28;19907;-35
2022/09/02 08:00:41;;;;;;;;;;;;;;;27.03;41.22;96692.50;5096501;28;19914;-35
2022/09/02 08:03:07;;;;;;;;;;;;;;;26.98;41.63;96691.31;5096717;28;19995;-35
2022/09/02 08:05:33;;;;;;;;;;;;;;;25.72;44.06;96682.81;5095597;28;19970;-30
2022/09/02 08:07:59;;;;;;;;;;;;;;;26.29;42.59;96696.84;5096563;28;20350;-34
2022/09/02 08:10:26;;;;;;;;;;;;;;;26.56;41.91;96695.72;5096403;28;19922;-34
2022/09/02 08:12:52;;;;;;;;;;;;;;;26.68;41.61;96696.31;5077673;28;19908;-34
2022/09/02 08:15:19;;;;;;;;;;;;;;;26.70;41.90;96688.94;5096066;28;20346;-34
2022/09/02 08:17:45;;;;;;;;;;;;;;;26.78;41.84;96695.38;5096536;28;19969;-35
2022/09/02 08:20:11;;;;;;;;;;;;;;;26.85;41.28;96688.44;5096515;28;20305;-34
2022/09/02 08:22:37;;;;;;;;;;;;;;;26.77;41.69;96688.31;5096048;28;19908;-35
2022/09/02 08:25:03;;;;;;;;;;;;;;;26.79;41.83;96682.22;5096334;28;19915;-34
2022/09/02 08:27:28;;;;;;;;;;;;;;;26.92;41.74;96689.88;5096209;28;19908;-35
2022/09/02 08:29:53;;;;;;;;;;;;;;;27.00;41.42;96696.34;5095542;28;19908;-34
2022/09/02 08:32:19;;;;;;;;;;;;;;;26.63;41.79;96717.34;5095901;28;20001;-34
2022/09/02 08:34:44;;;;;;;;;;;;;;;26.76;42.13;96728.53;5096034;28;19996;-34
2022/09/02 08:37:10;;;;;;;;;;;;;;;26.83;41.66;96739.06;5095997;28;20265;-34
2022/09/02 08:39:35;;;;;;;;;;;;;;;26.90;41.39;96731.38;5077879;28;20006;-34
2022/09/02 08:42:07;;;;;;;;;;;;;;;26.96;41.73;96734.84;5096222;28;19919;-35
2022/09/02 08:44:35;;;;;;;;;;;;;;;26.90;41.64;96742.53;5095604;28;19999;-34
2022/09/02 08:47:02;;;;;;;;;;;;;;;26.91;41.54;96730.13;5095588;28;20378;-35
2022/09/02 08:49:33;;;;;;;;;;;;;;;26.95;41.78;96722.25;5095820;28;20354;-35
2022/09/02 08:52:00;;;;;;;;;;;;;;;26.91;41.81;96724.53;5096197;28;20334;-34
2022/09/02 08:54:26;;;;;;;;;;;;;;;26.91;41.45;96722.53;5095595;28;19995;-35
2022/09/02 08:56:51;;;;;;;;;;;;;;;26.93;41.72;96719.25;5095826;28;19962;-34
2022/09/02 08:59:21;;;;;;;;;;;;;;;26.92;41.40;96721.25;5095363;28;19908;-34
2022/09/02 09:02:04;;;;;;;;;;;;;;;26.98;41.56;96724.69;5095344;28;19926;-34
2022/09/02 09:04:52;;;;;;;;;;;;;;;26.90;41.62;96721.00;5095305;28;19965;-34
2022/09/02 09:07:22;;;;;;;;;;;;;;;26.97;41.36;96722.44;5087361;28;19912;-34
2022/09/02 09:09:50;;;;;;;;;;;;;;;27.03;41.36;96717.56;5095544;28;19908;-34
2022/09/02 09:12:32;;;;;;;;;;;;;;;26.99;41.47;96717.84;5095032;28;20312;-34
2022/09/02 09:15:06;;;;;;;;;;;;;;;26.99;41.34;96719.88;5095049;28;19912;-35
2022/09/02 09:17:32;;;;;;;;;;;;;;;26.82;41.75;96709.00;5095211;28;20359;-34
2022/09/02 09:20:00;;;;;;;;;;;;;;;26.87;42.00;96707.41;5095257;28;19947;-35
2022/09/02 09:22:36;;;;;;;;;;;;;;;26.80;41.80;96706.75;5077015;28;19908;-34
2022/09/02 09:25:06;;;;;;;;;;;;;;;26.81;42.20;96713.06;5095097;28;19916;-34
2022/09/02 09:27:31;;;;;;;;;;;;;;;26.90;41.37;96715.44;5094952;28;19919;-34
2022/09/02 09:29:56;;;;;;;;;;;;;;;26.90;41.46;96711.91;5094802;28;19908;-34
2022/09/02 09:32:32;;;;;;;;;;;;;;;26.86;41.47;96722.59;5095242;28;19908;-34
2022/09/02 09:35:01;;;;;;;;;;;;;;;26.89;41.41;96727.09;5094915;28;19951;-34
2022/09/02 09:37:37;;;;;;;;;;;;;;;27.01;41.63;96736.81;5094647;28;19915;-35
2022/09/02 09:40:32;;;;;;;;;;;;;;;26.91;41.60;96724.53;5094144;28;19908;-35
2022/09/02 09:43:11;;;;;;;;;;;;;;;26.86;41.25;96720.56;5063210;28;19961;-35
2022/09/02 09:45:38;;;;;;;;;;;;;;;26.81;41.51;96707.50;5094685;28;19919;-34
2022/09/02 09:48:16;;;;;;;;;;;;;;;26.72;41.56;96708.63;5094793;28;19908;-34
2022/09/02 09:50:46;;;;;;;;;;;;;;;26.89;41.31;96704.84;5094511;28;19908;-34
2022/09/02 09:53:14;;;;;;;;;;;;;;;26.98;41.54;96704.47;5094667;28;19915;-34
2022/09/02 09:55:54;;;;;;;;;;;;;;;26.93;41.17;96716.44;5088661;28;19915;-34
2022/09/02 09:58:20;;;;;;;;;;;;;;;27.00;41.30;96711.00;5073184;28;20366;-34
2022/09/02 10:00:45;;;;;;;;;;;;;;;26.88;41.67;96720.03;5055973;28;19931;-34
2022/09/02 10:03:19;;;;;;;;;;;;;;;26.82;41.43;96709.75;5056223;28;20374;-34
2022/09/02 10:05:45;;;;;;;;;;;;;;;26.99;41.58;96705.97;5073931;28;19977;-35
2022/09/02 10:08:13;;;;;;;;;;;;;;;27.04;41.08;96716.28;5074117;28;19963;-35
2022/09/02 10:10:38;;;;;;;;;;;;;;;27.05;41.54;96715.00;5073971;28;19912;-34
2022/09/02 10:13:21;;;;;;;;;;;;;;;27.00;41.24;96713.78;5073924;28;20009;-34
2022/09/02 10:15:57;;;;;;;;;;;;;;;27.02;41.16;96713.28;5073963;28;19958;-34
2022/09/02 10:18:41;;;;;;;;;;;;;;;27.02;41.49;96704.91;5073929;28;19955;-34
2022/09/02 10:21:16;;;;;;;;;;;;;;;26.91;41.09;96705.06;5074055;28;19910;-34
2022/09/02 10:24:07;;;;;;;;;;;;;;;27.04;41.32;96694.00;5073857;28;19912;-34
2022/09/02 10:26:39;;;;;;;;;;;;;;;26.98;41.51;96690.56;5050133;28;19919;-34
2022/09/02 10:29:05;;;;;;;;;;;;;;;26.97;41.20;96697.41;5074043;28;19916;-35
2022/09/02 10:31:36;;;;;;;;;;;;;;;26.98;41.70;96687.78;5073573;28;19919;-34
2022/09/02 10:34:08;;;;;;;;;;;;;;;27.05;41.83;96696.28;5073511;28;19958;-34
2022/09/02 10:36:33;;;;;;;;;;;;;;;27.08;41.59;96695.19;5073733;28;20444;-34
2022/09/02 10:39:10;;;;;;;;;;;;;;;26.75;40.33;96701.25;5073509;28;19987;-34
2022/09/02 10:41:45;;;;;;;;;;;;;;;26.89;41.07;96699.28;5073753;28;19934;-34
2022/09/02 10:44:29;;;;;;;;;;;;;;;26.93;41.27;96692.16;5073445;28;20309;-34
2022/09/02 10:47:02;;;;;;;;;;;;;;;27.03;41.48;96698.81;5073594;28;19908;-34
2022/09/02 10:49:49;;;;;;;;;;;;;;;27.00;40.16;96699.88;5073521;28;19908;-34
2022/09/02 10:52:31;;;;;;;;;;;;;;;27.01;41.35;96695.81;5075278;28;19909;-34
2022/09/02 10:54:56;;;;;;;;;;;;;;;27.07;41.36;96688.16;5077590;28;19912;-34
2022/09/02 10:57:25;;;;;;;;;;;;;;;27.08;41.61;96697.22;5077515;28;19908;-34
2022/09/02 11:00:00;;;;;;;;;;;;;;;27.08;41.21;96686.09;5077815;28;19939;-34
2022/09/02 11:02:27;;;;;;;;;;;;;;;27.14;40.97;96676.38;5077765;28;19908;-35
2022/09/02 11:04:55;;;;;;;;;;;;;;;27.16;41.45;96678.63;5077717;28;19912;-34
2022/09/02 11:07:41;;;;;;;;;;;;;;;27.01;40.79;96681.16;5077605;28;19952;-36
2022/09/02 11:10:26;;;;;;;;;;;;;;;27.05;41.37;96676.78;5076675;28;19909;-34
2022/09/02 11:13:10;;;;;;;;;;;;;;;27.11;40.80;96669.06;5076760;28;19908;-34
2022/09/02 11:15:41;;;;;;;;;;;;;;;27.13;40.79;96666.53;5077084;28;19909;-34
2022/09/02 11:18:21;;;;;;;;;;;;;;;27.13;40.60;96674.13;5077070;28;20293;-34
2022/09/02 11:21:06;;;;;;;;;;;;;;;27.19;40.67;96674.78;5076950;28;19923;-34
2022/09/02 11:23:40;;;;;;;;;;;;;;;27.15;40.82;96685.47;5076941;28;19970;-34
2022/09/02 11:26:15;;;;;;;;;;;;;;;27.17;40.84;96680.13;5077001;28;19914;-34
2022/09/02 11:28:47;;;;;;;;;;;;;;;27.14;40.49;96675.63;5077215;28;19909;-34
2022/09/02 11:31:23;;;;;;;;;;;;;;;27.17;40.93;96677.34;5076776;28;20366;-35
2022/09/02 11:34:01;;;;;;;;;;;;;;;27.17;40.84;96677.34;5077346;28;19908;-35
2022/09/02 11:36:28;;;;;;;;;;;;;;;27.17;40.62;96677.34;5076861;28;19954;-34
2022/09/02 11:38:53;;;;;;;;;;;;;;;27.16;40.28;96684.19;5076785;28;20343;-34
2022/09/02 11:41:25;;;;;;;;;;;;;;;27.15;40.47;96686.22;5076642;28;19936;-34
2022/09/02 11:43:51;;;;;;;;;;;;;;;27.17;40.65;96680.13;5076374;28;19950;-34
2022/09/02 11:46:19;;;;;;;;;;;;;;;27.11;40.57;96683.00;5076648;28;19908;-34
2022/09/02 11:48:53;;;;;;;;;;;;;;;27.14;40.70;96665.22;5076376;28;19962;-34
2022/09/02 11:51:37;;;;;;;;;;;;;;;27.14;40.83;96670.81;5076449;28;19915;-34
2022/09/02 11:54:04;;;;;;;;;;;;;;;27.22;40.92;96672.94;5058424;28;20374;-34
2022/09/02 11:56:34;;;;;;;;;;;;;;;27.19;40.94;96672.00;5076256;28;19914;-34
2022/09/02 11:58:59;;;;;;;;;;;;;;;27.19;41.09;96677.56;5076532;28;19909;-34
2022/09/02 12:01:30;;;;;;;;;;;;;;;27.19;41.29;96680.34;5076600;28;19958;-34
2022/09/02 12:03:58;;;;;;;;;;;;;;;27.20;41.32;96667.19;5075396;28;19912;-34
2022/09/02 12:06:24;;;;;;;;;;;;;;;27.18;41.25;96670.50;5076201;28;20007;-34
2022/09/02 12:08:50;;;;;;;;;;;;;;;27.21;40.98;96669.41;5076044;28;19908;-34
2022/09/02 12:11:41;;;;;;;;;;;;;;;27.20;41.23;96676.25;5076184;28;19916;-34
2022/09/02 12:14:22;;;;;;;;;;;;;;;27.07;40.89;96679.03;5073084;28;19916;-34
2022/09/02 12:17:02;;;;;;;;;;;;;;;27.08;41.53;96678.47;5076027;28;19908;-34
2022/09/02 12:19:49;;;;;;;;;;;;;;;27.20;40.90;96667.19;5075902;28;19966;-34
2022/09/02 12:22:14;;;;;;;;;;;;;;;27.03;40.73;96670.25;5076144;28;19908;-34
2022/09/02 12:25:02;;;;;;;;;;;;;;;26.96;41.16;96681.97;5075732;28;19919;-34
2022/09/02 12:27:35;;;;;;;;;;;;;;;27.06;40.91;96678.28;5067884;28;20423;-34
2022/09/02 12:30:01;;;;;;;;;;;;;;;27.20;41.22;96667.91;5075713;28;20334;-34
2022/09/02 12:32:45;;;;;;;;;;;;;;;27.16;41.02;96661.94;5068311;28;19920;-34
2022/09/02 12:35:30;;;;;;;;;;;;;;;27.21;41.29;96658.28;5066687;28;19969;-34
2022/09/02 12:38:10;;;;;;;;;;;;;;;27.16;41.24;96659.13;5068169;28;19939;-34
2022/09/02 12:40:41;;;;;;;;;;;;;;;27.18;41.00;96651.00;5068939;28;19919;-34
2022/09/02 12:43:18;;;;;;;;;;;;;;;27.23;40.76;96657.75;5064210;28;20717;-34
2022/09/02 12:45:44;;;;;;;;;;;;;;;27.25;40.75;96658.72;5067534;28;19915;-34
